Time;durP1;ratioP1;P1;durP2;ratioP2;P2;SDS_P1;SDS_P2;PMS_P1;PMS_P2;Temp;Humidity;BMP_temperature;BMP_pressure;BME280_temperature;BME280_humidity;BME280_pressure;Samples;Min_cycle;Max_cycle;Signal;HPM_P1;HPM_P2
2023/10/04 00:00:50;;;;;;;18.95;3.38;;;12.20;92.30;;;;;;5056271;28;20081;-75
2023/10/04 00:03:15;;;;;;;14.15;2.42;;;12.20;92.30;;;;;;5066752;28;20081;-75
2023/10/04 00:05:41;;;;;;;19.42;2.80;;;12.20;92.30;;;;;;5071416;28;21710;-75
2023/10/04 00:08:07;;;;;;;12.35;2.47;;;12.30;92.20;;;;;;5056548;28;20119;-75
2023/10/04 00:10:33;;;;;;;17.33;3.20;;;12.20;92.30;;;;;;5071676;28;20035;-75
2023/10/04 00:13:00;;;;;;;17.70;2.65;;;12.20;92.40;;;;;;5056726;28;20245;-74
2023/10/04 00:15:27;;;;;;;11.20;3.05;;;12.10;92.50;;;;;;5068534;28;20033;-75
2023/10/04 00:17:53;;;;;;;15.45;3.05;;;12.10;92.60;;;;;;5058652;28;20029;-75
2023/10/04 00:20:21;;;;;;;13.43;2.80;;;12.10;92.60;;;;;;5067328;28;20452;-75
2023/10/04 00:22:47;;;;;;;11.15;2.63;;;12.00;92.80;;;;;;5055436;28;20156;-75
2023/10/04 00:25:20;;;;;;;17.23;3.20;;;12.00;92.90;;;;;;5072670;28;20069;-75
2023/10/04 00:27:47;;;;;;;18.67;2.92;;;12.00;92.90;;;;;;5053003;28;20700;-75
2023/10/04 00:30:15;;;;;;;25.48;3.33;;;12.00;92.90;;;;;;5074215;28;20028;-75
2023/10/04 00:32:42;;;;;;;17.40;2.80;;;12.00;93.00;;;;;;5056458;28;20071;-75
2023/10/04 00:35:11;;;;;;;11.57;2.72;;;12.00;93.20;;;;;;5065134;28;20518;-75
2023/10/04 00:37:37;;;;;;;20.58;2.95;;;11.90;93.10;;;;;;5060107;28;20042;-75
2023/10/04 00:40:14;;;;;;;15.13;3.13;;;11.90;93.20;;;;;;5069269;28;20036;-75
2023/10/04 00:42:40;;;;;;;21.77;3.42;;;11.90;93.30;;;;;;5058199;28;20036;-75
2023/10/04 00:45:09;;;;;;;15.10;2.30;;;11.80;93.40;;;;;;5070272;28;20038;-75
2023/10/04 00:47:35;;;;;;;14.10;2.67;;;11.80;93.30;;;;;;5051532;28;20033;-75
2023/10/04 00:50:14;;;;;;;21.33;3.08;;;11.90;93.50;;;;;;5068775;28;20029;-74
2023/10/04 00:52:46;;;;;;;12.38;2.28;;;11.90;93.40;;;;;;5057920;28;20176;-75
2023/10/04 00:55:14;;;;;;;21.50;3.03;;;12.00;93.40;;;;;;5067820;28;20033;-75
2023/10/04 00:57:40;;;;;;;19.17;3.15;;;11.90;93.30;;;;;;5062228;28;20111;-73
2023/10/04 01:00:09;;;;;;;14.85;2.95;;;12.00;93.40;;;;;;5072651;28;20109;-75
2023/10/04 01:02:36;;;;;;;19.77;2.28;;;11.90;93.30;;;;;;5069938;28;20028;-75
2023/10/04 01:05:03;;;;;;;17.85;2.47;;;11.90;93.40;;;;;;5059505;28;20069;-74
2023/10/04 01:07:30;;;;;;;16.10;3.05;;;11.80;93.60;;;;;;5069516;28;20044;-75
2023/10/04 01:09:56;;;;;;;15.88;3.05;;;11.90;93.70;;;;;;5067588;28;20086;-75
2023/10/04 01:12:23;;;;;;;16.85;2.78;;;11.90;93.60;;;;;;5072894;28;20131;-75
2023/10/04 01:14:53;;;;;;;16.77;2.97;;;11.80;93.60;;;;;;5059839;28;20028;-75
2023/10/04 01:17:20;;;;;;;20.55;3.10;;;11.80;93.70;;;;;;5074486;28;20657;-75
2023/10/04 01:19:46;;;;;;;19.63;3.00;;;11.80;93.70;;;;;;5058363;28;20036;-75
2023/10/04 01:22:12;;;;;;;17.27;2.78;;;11.80;93.70;;;;;;5071623;28;20135;-74
2023/10/04 01:24:41;;;;;;;20.38;2.95;;;11.70;93.90;;;;;;5063713;28;20107;-75
2023/10/04 01:27:08;;;;;;;10.52;2.55;;;11.60;94.20;;;;;;5074002;28;20036;-75
2023/10/04 01:29:34;;;;;;;16.00;2.35;;;11.60;94.20;;;;;;5060377;28;20032;-75
2023/10/04 01:31:59;;;;;;;16.40;3.13;;;11.50;94.40;;;;;;5074262;28;20647;-75
2023/10/04 01:34:26;;;;;;;15.07;2.67;;;11.60;94.50;;;;;;5056003;28;20040;-75
2023/10/04 01:36:53;;;;;;;20.10;3.20;;;11.60;94.50;;;;;;5070883;28;20495;-75
2023/10/04 01:39:20;;;;;;;14.88;2.75;;;11.60;94.50;;;;;;5059222;28;20559;-75
2023/10/04 01:41:47;;;;;;;16.25;3.65;;;11.60;94.40;;;;;;5070802;28;20044;-75
2023/10/04 01:44:14;;;;;;;19.02;2.90;;;11.70;94.40;;;;;;5066987;28;20036;-75
2023/10/04 01:46:40;;;;;;;19.10;3.00;;;11.70;94.30;;;;;;5065523;28;20024;-75
2023/10/04 01:49:07;;;;;;;13.98;2.65;;;11.70;94.20;;;;;;5066174;28;20115;-75
2023/10/04 01:51:33;;;;;;;16.05;3.17;;;11.70;94.30;;;;;;5060246;28;20066;-75
2023/10/04 01:54:00;;;;;;;22.80;3.20;;;11.70;94.20;;;;;;5070578;28;20111;-75
2023/10/04 01:56:26;;;;;;;14.88;2.95;;;11.70;94.10;;;;;;5056366;28;20562;-74
2023/10/04 01:58:53;;;;;;;17.65;2.78;;;11.60;94.20;;;;;;5075456;28;20044;-75
2023/10/04 02:01:19;;;;;;;22.35;3.25;;;11.60;94.30;;;;;;5053873;28;20047;-74
2023/10/04 02:03:45;;;;;;;15.88;2.60;;;11.50;94.60;;;;;;5065014;28;20068;-75
2023/10/04 02:06:11;;;;;;;27.70;3.15;;;11.50;94.80;;;;;;5057676;28;20032;-74
2023/10/04 02:08:37;;;;;;;18.63;3.40;;;11.60;94.90;;;;;;5068479;28;20134;-75
2023/10/04 02:11:05;;;;;;;18.23;2.90;;;11.50;94.90;;;;;;5057827;28;20387;-74
2023/10/04 02:13:32;;;;;;;17.55;2.28;;;11.50;94.90;;;;;;5068612;28;20101;-75
2023/10/04 02:15:59;;;;;;;23.92;3.22;;;11.50;94.90;;;;;;5056217;28;20036;-75
2023/10/04 02:18:25;;;;;;;15.13;2.40;;;11.40;95.10;;;;;;5073657;28;20040;-75
2023/10/04 02:20:53;;;;;;;22.58;3.38;;;11.40;95.10;;;;;;5053708;28;20045;-75
2023/10/04 02:23:19;;;;;;;17.65;2.83;;;11.40;95.30;;;;;;5076276;28;20059;-75
2023/10/04 02:25:45;;;;;;;16.80;3.13;;;11.30;95.20;;;;;;5059024;28;20046;-75
2023/10/04 02:28:11;;;;;;;14.57;3.03;;;11.30;95.40;;;;;;5075482;28;20500;-74
2023/10/04 02:30:38;;;;;;;20.90;2.85;;;11.40;95.60;;;;;;5074347;28;20025;-74
2023/10/04 02:33:09;;;;;;;22.50;2.30;;;11.40;95.50;;;;;;5064211;28;20017;-74
2023/10/04 02:35:41;;;;;;;19.48;2.65;;;11.40;95.50;;;;;;5068402;28;20035;-75
2023/10/04 02:38:16;;;;;;;20.50;2.67;;;11.30;95.40;;;;;;5061906;28;20028;-74
2023/10/04 02:40:43;;;;;;;14.98;2.38;;;11.30;95.50;;;;;;5071224;28;20021;-75
2023/10/04 02:43:09;;;;;;;21.75;3.15;;;11.30;95.70;;;;;;5059965;28;20067;-74
2023/10/04 02:45:36;;;;;;;23.65;3.35;;;11.30;95.70;;;;;;5070614;28;20116;-75
2023/10/04 02:48:04;;;;;;;19.25;3.47;;;11.30;95.90;;;;;;5053725;28;20035;-74
2023/10/04 02:50:30;;;;;;;20.73;2.75;;;11.30;95.80;;;;;;5073115;28;20020;-75
2023/10/04 02:52:56;;;;;;;17.52;2.50;;;11.40;95.90;;;;;;5056056;28;20574;-75
2023/10/04 02:55:22;;;;;;;17.92;2.50;;;11.40;95.90;;;;;;5068767;28;20483;-74
2023/10/04 02:57:49;;;;;;;13.70;2.33;;;11.30;95.90;;;;;;5058247;28;20043;-75
2023/10/04 03:00:16;;;;;;;24.60;2.92;;;11.30;95.90;;;;;;5071100;28;20024;-74
2023/10/04 03:02:50;;;;;;;26.90;3.40;;;11.30;96.00;;;;;;5056458;28;20040;-74
2023/10/04 03:05:19;;;;;;;19.45;2.92;;;11.40;96.00;;;;;;5073968;28;20426;-74
2023/10/04 03:07:47;;;;;;;18.38;3.20;;;11.40;96.00;;;;;;5056019;28;20941;-74
2023/10/04 03:10:14;;;;;;;21.42;3.15;;;11.40;95.80;;;;;;5069081;28;20052;-74
2023/10/04 03:12:41;;;;;;;20.23;2.33;;;11.40;95.70;;;;;;5060694;28;20131;-75
2023/10/04 03:15:07;;;;;;;25.15;3.17;;;11.30;95.70;;;;;;5067419;28;20133;-74
2023/10/04 03:17:33;;;;;;;16.88;3.15;;;11.20;95.80;;;;;;5054087;28;20036;-75
2023/10/04 03:20:00;;;;;;;12.52;3.03;;;11.20;95.80;;;;;;5071739;28;20484;-74
2023/10/04 03:22:26;;;;;;;12.23;2.17;;;11.10;95.70;;;;;;5057897;28;20040;-75
2023/10/04 03:24:53;;;;;;;24.45;3.13;;;11.10;96.00;;;;;;5065850;28;20035;-74
2023/10/04 03:27:24;;;;;;;15.20;2.47;;;11.10;96.00;;;;;;5068788;28;20036;-75
2023/10/04 03:29:51;;;;;;;17.33;2.55;;;11.00;96.10;;;;;;5059744;28;20027;-74
2023/10/04 03:32:18;;;;;;;19.73;2.78;;;11.00;96.00;;;;;;5073208;28;20024;-75
2023/10/04 03:34:44;;;;;;;16.67;2.72;;;11.00;95.90;;;;;;5056571;28;20036;-75
2023/10/04 03:37:14;;;;;;;15.05;2.10;;;10.90;95.90;;;;;;5071608;28;20399;-74
2023/10/04 03:39:40;;;;;;;18.42;2.83;;;10.90;95.90;;;;;;5064193;28;20400;-75
2023/10/04 03:42:06;;;;;;;13.23;2.58;;;10.90;95.80;;;;;;5066653;28;20032;-74
2023/10/04 03:44:32;;;;;;;21.35;3.15;;;10.90;96.00;;;;;;5062159;28;20442;-74
2023/10/04 03:46:58;;;;;;;17.08;2.65;;;10.90;96.20;;;;;;5072743;28;20036;-74
2023/10/04 03:49:25;;;;;;;21.45;2.92;;;10.80;96.10;;;;;;5061939;28;20085;-74
2023/10/04 03:51:52;;;;;;;19.67;3.65;;;10.80;96.30;;;;;;5071302;28;20111;-75
2023/10/04 03:54:19;;;;;;;22.55;3.15;;;10.70;96.40;;;;;;5056051;28;20028;-74
2023/10/04 03:56:44;;;;;;;15.32;3.20;;;10.70;96.60;;;;;;5071837;28;20087;-75
2023/10/04 03:59:11;;;;;;;17.95;3.03;;;10.70;96.50;;;;;;5063849;28;20043;-75
2023/10/04 04:01:37;;;;;;;14.27;2.70;;;10.70;96.50;;;;;;5067086;28;20354;-75
2023/10/04 04:04:06;;;;;;;13.68;2.67;;;10.70;96.80;;;;;;5047628;28;20034;-75
2023/10/04 04:06:32;;;;;;;14.15;2.15;;;10.70;96.60;;;;;;5065519;28;20082;-75
2023/10/04 04:09:01;;;;;;;13.93;2.60;;;10.70;96.80;;;;;;5061434;28;20721;-74
2023/10/04 04:11:27;;;;;;;14.35;2.20;;;10.60;96.90;;;;;;5065018;28;20024;-74
2023/10/04 04:13:55;;;;;;;19.25;2.38;;;10.70;97.10;;;;;;5061336;28;20055;-75
2023/10/04 04:16:21;;;;;;;14.63;2.15;;;10.70;97.20;;;;;;5057457;28;21700;-74
2023/10/04 04:18:47;;;;;;;20.35;2.47;;;10.70;97.20;;;;;;5069177;28;20055;-75
2023/10/04 04:21:14;;;;;;;14.63;2.40;;;10.80;97.10;;;;;;5059064;28;20794;-75
2023/10/04 04:23:41;;;;;;;15.45;2.67;;;10.80;97.20;;;;;;5066634;28;20032;-75
2023/10/04 04:26:07;;;;;;;17.23;2.45;;;10.80;97.20;;;;;;5061029;28;20028;-75
2023/10/04 04:28:36;;;;;;;24.23;3.25;;;10.80;97.30;;;;;;5065496;28;20029;-75
2023/10/04 04:31:05;;;;;;;21.85;2.38;;;10.80;97.50;;;;;;5053682;28;20036;-75
2023/10/04 04:33:31;;;;;;;24.63;2.40;;;10.80;97.20;;;;;;5069872;28;20025;-74
2023/10/04 04:36:05;;;;;;;18.67;2.40;;;10.80;97.20;;;;;;5054880;28;20043;-75
2023/10/04 04:38:31;;;;;;;18.90;2.60;;;10.80;97.00;;;;;;5072268;28;20039;-74
2023/10/04 04:40:57;;;;;;;18.05;2.58;;;10.80;97.10;;;;;;5060275;28;20040;-75
2023/10/04 04:43:27;;;;;;;19.65;2.45;;;10.90;97.10;;;;;;5064807;28;20036;-75
2023/10/04 04:45:54;;;;;;;16.52;3.13;;;10.90;97.20;;;;;;5059291;28;20484;-75
2023/10/04 04:48:24;;;;;;;27.00;2.70;;;10.90;97.10;;;;;;5069292;28;20039;-74
2023/10/04 04:50:52;;;;;;;14.32;2.25;;;10.90;96.90;;;;;;5058721;28;20028;-75
2023/10/04 04:53:20;;;;;;;15.13;2.42;;;10.80;96.80;;;;;;5069405;28;20039;-75
2023/10/04 04:55:46;;;;;;;18.33;2.67;;;10.90;96.90;;;;;;5052288;28;20071;-75
2023/10/04 04:58:15;;;;;;;22.33;2.20;;;10.90;97.00;;;;;;5069216;28;20560;-74
2023/10/04 05:00:43;;;;;;;23.48;2.30;;;10.90;97.10;;;;;;5059777;28;20029;-74
2023/10/04 05:03:09;;;;;;;18.83;2.33;;;11.00;97.10;;;;;;5064485;28;20078;-75
2023/10/04 05:05:35;;;;;;;14.93;2.17;;;11.10;97.00;;;;;;5070175;28;20085;-75
2023/10/04 05:08:01;;;;;;;10.48;2.03;;;11.10;96.70;;;;;;5059223;28;20028;-74
2023/10/04 05:10:34;;;;;;;20.15;2.65;;;11.00;96.70;;;;;;5081637;28;20024;-75
2023/10/04 05:13:01;;;;;;;17.75;2.67;;;11.10;96.70;;;;;;5059909;28;20567;-75
2023/10/04 05:15:32;;;;;;;20.05;2.60;;;11.00;96.70;;;;;;5065199;28;20025;-75
2023/10/04 05:18:00;;;;;;;18.77;2.28;;;11.10;96.80;;;;;;5058933;28;20028;-75
2023/10/04 05:20:30;;;;;;;14.50;1.95;;;11.10;96.80;;;;;;5074107;28;20096;-75
2023/10/04 05:22:57;;;;;;;13.20;2.17;;;11.10;96.90;;;;;;5055903;28;20028;-75
2023/10/04 05:25:23;;;;;;;18.17;2.40;;;11.10;96.80;;;;;;5070435;28;20536;-75
2023/10/04 05:27:50;;;;;;;20.85;2.55;;;11.20;96.90;;;;;;5058526;28;20114;-75
2023/10/04 05:30:16;;;;;;;26.02;2.85;;;11.20;96.90;;;;;;5067073;28;20028;-74
2023/10/04 05:32:43;;;;;;;16.17;2.13;;;11.30;97.00;;;;;;5059046;28;21048;-75
2023/10/04 05:35:12;;;;;;;19.42;3.33;;;11.40;96.80;;;;;;5067155;28;20078;-75
2023/10/04 05:37:39;;;;;;;19.33;2.28;;;11.40;96.70;;;;;;5057475;28;20082;-75
2023/10/04 05:40:10;;;;;;;17.23;2.65;;;11.40;96.50;;;;;;5072032;28;20099;-75
2023/10/04 05:42:36;;;;;;;17.58;2.50;;;11.30;96.30;;;;;;5058937;28;20066;-75
2023/10/04 05:45:03;;;;;;;20.92;3.38;;;11.30;96.50;;;;;;5073959;28;20032;-75
2023/10/04 05:47:30;;;;;;;27.63;2.67;;;11.40;96.60;;;;;;5058696;28;20029;-75
2023/10/04 05:49:56;;;;;;;17.58;2.53;;;11.30;96.50;;;;;;5065948;28;20142;-75
2023/10/04 05:52:22;;;;;;;14.77;1.63;;;11.40;96.40;;;;;;5068242;28;20090;-75
2023/10/04 05:54:48;;;;;;;11.55;1.95;;;11.40;96.30;;;;;;5059924;28;20033;-75
2023/10/04 05:57:13;;;;;;;21.30;2.95;;;11.50;96.20;;;;;;5071684;28;20086;-76
2023/10/04 05:59:39;;;;;;;14.77;1.85;;;11.50;96.00;;;;;;5057775;28;20811;-76
2023/10/04 06:02:05;;;;;;;16.65;2.03;;;11.60;96.00;;;;;;5068778;28;20032;-76
2023/10/04 06:04:30;;;;;;;14.32;2.40;;;11.60;95.90;;;;;;5044690;28;20263;-75
2023/10/04 06:06:56;;;;;;;13.82;1.63;;;11.70;95.80;;;;;;5072848;28;20576;-76
2023/10/04 06:09:32;;;;;;;10.20;2.00;;;11.80;95.50;;;;;;5053190;28;20119;-76
2023/10/04 06:11:58;;;;;;;17.02;2.20;;;11.90;95.40;;;;;;5067809;28;20025;-76
2023/10/04 06:14:26;;;;;;;17.65;2.17;;;11.90;95.30;;;;;;5052452;28;20031;-76
2023/10/04 06:16:52;;;;;;;17.63;2.67;;;11.90;95.30;;;;;;5068083;28;20029;-75
2023/10/04 06:19:19;;;;;;;19.75;2.38;;;11.90;95.40;;;;;;5059523;28;20036;-75
2023/10/04 06:21:49;;;;;;;15.57;1.65;;;11.90;95.40;;;;;;5070768;28;20464;-75
2023/10/04 06:24:15;;;;;;;16.23;2.17;;;12.00;95.30;;;;;;5058951;28;20093;-74
2023/10/04 06:26:41;;;;;;;15.40;2.40;;;12.00;95.20;;;;;;5070119;28;20029;-76
2023/10/04 06:29:07;;;;;;;18.95;2.20;;;12.10;95.10;;;;;;5063302;28;20139;-76
2023/10/04 06:31:33;;;;;;;15.20;1.92;;;12.20;95.00;;;;;;5074525;28;20069;-76
2023/10/04 06:34:00;;;;;;;10.15;1.90;;;12.30;95.00;;;;;;5060678;28;20039;-76
2023/10/04 06:36:25;;;;;;;11.80;2.35;;;12.30;94.80;;;;;;5068586;28;20751;-75
2023/10/04 06:38:51;;;;;;;11.15;1.90;;;12.30;94.90;;;;;;5069130;28;20097;-76
2023/10/04 06:41:23;;;;;;;14.40;2.25;;;12.40;94.80;;;;;;5061030;28;20540;-74
2023/10/04 06:43:50;;;;;;;14.38;1.65;;;12.50;94.60;;;;;;5057957;28;20648;-74
2023/10/04 06:46:15;;;;;;;15.63;2.08;;;12.50;94.40;;;;;;5044710;28;20040;-74
2023/10/04 06:48:41;;;;;;;20.90;2.47;;;12.60;94.30;;;;;;5055652;28;20063;-75
2023/10/04 06:51:06;;;;;;;9.63;1.60;;;12.70;94.30;;;;;;5048879;28;20017;-74
2023/10/04 06:53:33;;;;;;;17.80;2.22;;;12.70;94.10;;;;;;5060872;28;20131;-75
2023/10/04 06:55:59;;;;;;;12.93;2.00;;;12.70;94.10;;;;;;5048811;28;20385;-75
2023/10/04 06:58:27;;;;;;;18.65;1.98;;;12.80;94.00;;;;;;5068808;28;20036;-75
2023/10/04 07:00:52;;;;;;;11.75;2.22;;;12.80;93.80;;;;;;5038121;28;20567;-74
2023/10/04 07:03:18;;;;;;;15.45;2.13;;;12.90;93.70;;;;;;5046089;28;20203;-73
2023/10/04 07:05:44;;;;;;;18.02;2.40;;;13.00;93.40;;;;;;5048327;28;20036;-73
2023/10/04 07:08:16;;;;;;;19.85;2.40;;;13.10;93.40;;;;;;5061765;28;20061;-74
2023/10/04 07:10:43;;;;;;;12.73;1.88;;;13.20;93.20;;;;;;5048118;28;20029;-74
2023/10/04 07:13:09;;;;;;;17.83;2.90;;;13.30;92.90;;;;;;5062105;28;20040;-74
2023/10/04 07:15:35;;;;;;;14.07;2.30;;;13.40;92.60;;;;;;5050077;28;20024;-75
2023/10/04 07:18:06;;;;;;;17.65;2.60;;;13.50;92.30;;;;;;5049520;28;20028;-73
2023/10/04 07:20:32;;;;;;;15.18;2.20;;;13.60;92.10;;;;;;5039109;28;20044;-76
2023/10/04 07:22:58;;;;;;;12.35;2.10;;;13.70;91.90;;;;;;5049651;28;20063;-72
2023/10/04 07:25:26;;;;;;;6.38;1.92;;;13.80;91.70;;;;;;5051270;28;20078;-76
2023/10/04 07:27:53;;;;;;;16.85;2.00;;;13.90;91.60;;;;;;5056157;28;20041;-75
2023/10/04 07:30:19;;;;;;;14.75;2.38;;;14.00;91.70;;;;;;5042950;28;20063;-77
2023/10/04 07:32:46;;;;;;;12.55;1.95;;;14.00;91.20;;;;;;5042849;28;20035;-75
2023/10/04 07:35:16;;;;;;;9.15;1.75;;;14.10;91.00;;;;;;5054721;28;20530;-75
2023/10/04 07:37:42;;;;;;;;;;;14.20;90.80;;;;;;5041552;28;20423;-74
2023/10/04 07:40:09;;;;;;;28.17;2.78;;;14.30;90.40;;;;;;5055699;28;19952;-73
2023/10/04 07:42:37;;;;;;;12.48;2.05;;;14.30;90.30;;;;;;5043976;28;20041;-74
2023/10/04 07:45:03;;;;;;;14.32;1.90;;;14.40;90.20;;;;;;5054571;28;20147;-74
2023/10/04 07:47:29;;;;;;;14.90;1.85;;;14.40;90.40;;;;;;5041250;28;20115;-73
2023/10/04 07:49:55;;;;;;;15.55;1.98;;;14.40;90.10;;;;;;5045176;28;20065;-73
2023/10/04 07:52:20;;;;;;;15.27;1.70;;;14.50;89.70;;;;;;5047102;28;20963;-72
2023/10/04 07:54:46;;;;;;;15.93;2.22;;;14.60;89.40;;;;;;5047898;28;20115;-72
2023/10/04 07:57:12;;;;;;;11.68;1.70;;;14.70;88.60;;;;;;5033792;28;20717;-73
2023/10/04 07:59:38;;;;;;;9.20;2.03;;;14.80;88.30;;;;;;5051640;28;20495;-72
2023/10/04 08:02:03;;;;;;;7.95;1.58;;;14.90;87.40;;;;;;5034384;28;20534;-74
2023/10/04 08:04:29;;;;;;;13.63;2.47;;;15.00;86.40;;;;;;5052445;28;20052;-73
2023/10/04 08:06:55;;;;;;;9.35;1.83;;;15.10;85.60;;;;;;5046470;28;20495;-73
2023/10/04 08:09:21;;;;;;;14.73;1.80;;;15.20;86.10;;;;;;5044350;28;20815;-72
2023/10/04 08:11:48;;;;;;;12.75;1.88;;;15.20;85.20;;;;;;5053273;28;20036;-72
2023/10/04 08:14:14;;;;;;;17.65;2.03;;;15.20;85.00;;;;;;5043731;28;20139;-73
2023/10/04 08:16:40;;;;;;;10.75;1.80;;;15.20;85.30;;;;;;5050652;28;20031;-71
2023/10/04 08:19:05;;;;;;;13.55;1.90;;;15.20;84.60;;;;;;5040280;28;20357;-72
2023/10/04 08:21:31;;;;;;;8.45;1.30;;;15.20;84.40;;;;;;5051704;28;20633;-71
2023/10/04 08:23:59;;;;;;;8.60;1.98;;;15.30;83.90;;;;;;5041277;28;20031;-70
2023/10/04 08:26:25;;;;;;;10.97;2.13;;;15.40;83.70;;;;;;5054690;28;20072;-71
2023/10/04 08:28:53;;;;;;;11.73;2.22;;;15.40;83.70;;;;;;5040525;28;20158;-70
2023/10/04 08:31:19;;;;;;;11.63;2.13;;;15.50;83.60;;;;;;5053974;28;20033;-73
2023/10/04 08:33:45;;;;;;;14.55;2.55;;;15.50;83.40;;;;;;5050095;28;20034;-71
2023/10/04 08:36:15;;;;;;;14.20;2.03;;;15.60;82.60;;;;;;5055857;28;20037;-71
2023/10/04 08:38:42;;;;;;;9.13;1.98;;;15.70;82.70;;;;;;5049647;28;20440;-72
2023/10/04 08:41:08;;;;;;;18.65;2.25;;;15.70;81.90;;;;;;5058276;28;20044;-72
2023/10/04 08:43:34;;;;;;;10.73;2.22;;;15.80;81.90;;;;;;5045406;28;20045;-72
2023/10/04 08:46:02;;;;;;;14.60;2.58;;;15.80;81.50;;;;;;5057340;28;20380;-72
2023/10/04 08:48:29;;;;;;;9.35;1.70;;;15.70;81.60;;;;;;5046360;28;20190;-72
2023/10/04 08:50:58;;;;;;;8.77;1.80;;;15.70;82.30;;;;;;5045772;28;20029;-72
2023/10/04 08:53:53;;;;;;;8.57;2.50;;;15.50;83.20;;;;;;5044509;28;20084;-74
2023/10/04 08:56:19;;;;;;;10.23;2.30;;;15.60;83.00;;;;;;5054663;28;20044;-75
2023/10/04 08:58:47;;;;;;;16.35;2.42;;;15.60;82.80;;;;;;5048665;28;20063;-75
2023/10/04 09:01:15;;;;;;;8.40;1.92;;;15.70;82.50;;;;;;5059392;28;20896;-76
2023/10/04 09:03:42;;;;;;;11.23;1.80;;;15.90;82.50;;;;;;5051470;28;20127;-75
2023/10/04 09:06:10;;;;;;;17.27;2.15;;;16.00;81.30;;;;;;5059174;28;20044;-75
2023/10/04 09:08:42;;;;;;;14.63;2.55;;;16.20;80.50;;;;;;5063954;28;20054;-76
2023/10/04 09:11:11;;;;;;;16.52;2.72;;;16.40;79.40;;;;;;5059345;28;20035;-77
2023/10/04 09:13:47;;;;;;;13.93;1.75;;;16.50;79.30;;;;;;5069290;28;20036;-79
2023/10/04 09:16:28;;;;;;;12.30;2.33;;;16.70;78.60;;;;;;5057982;28;20370;-74
2023/10/04 09:19:17;;;;;;;12.43;2.10;;;16.80;77.40;;;;;;5063028;28;20057;-74
2023/10/04 09:21:43;;;;;;;16.02;1.90;;;17.00;77.30;;;;;;5059831;28;20122;-75
2023/10/04 09:24:11;;;;;;;9.20;1.95;;;16.90;77.30;;;;;;5060164;28;20152;-75
2023/10/04 09:26:38;;;;;;;15.75;2.47;;;16.70;77.10;;;;;;5060478;28;20036;-75
2023/10/04 09:29:11;;;;;;;14.73;2.17;;;16.60;78.40;;;;;;5076539;28;20109;-73
2023/10/04 09:31:50;;;;;;;14.00;2.38;;;16.60;77.90;;;;;;5078935;28;20055;-74
2023/10/04 09:34:16;;;;;;;15.32;1.95;;;16.70;78.70;;;;;;5079208;28;20705;-74
2023/10/04 09:36:42;;;;;;;12.40;2.00;;;16.80;77.30;;;;;;5068810;28;20036;-73
2023/10/04 09:39:13;;;;;;;13.63;2.05;;;16.90;76.90;;;;;;5079309;28;20028;-74
2023/10/04 09:41:41;;;;;;;10.95;2.08;;;17.10;76.10;;;;;;5074135;28;20059;-74
2023/10/04 09:44:24;;;;;;;8.15;1.90;;;17.30;75.30;;;;;;5083240;28;20035;-74
2023/10/04 09:46:54;;;;;;;17.13;2.00;;;17.30;74.00;;;;;;5080592;28;20039;-73
2023/10/04 09:49:21;;;;;;;11.70;2.40;;;17.50;74.10;;;;;;5081014;28;20032;-74
2023/10/04 09:51:48;;;;;;;9.10;1.80;;;17.80;72.40;;;;;;5076137;28;20035;-75
2023/10/04 09:54:17;;;;;;;11.18;1.88;;;17.90;71.70;;;;;;5077261;28;20029;-72
2023/10/04 09:56:45;;;;;;;11.80;1.60;;;18.00;71.80;;;;;;5072562;28;20020;-74
2023/10/04 09:59:14;;;;;;;11.57;1.70;;;18.20;70.90;;;;;;5068149;28;20037;-73
2023/10/04 10:01:41;;;;;;;6.18;1.70;;;18.30;70.20;;;;;;5056630;28;20052;-73
2023/10/04 10:04:14;;;;;;;9.60;2.08;;;18.30;69.60;;;;;;5057935;28;20594;-74
2023/10/04 10:06:53;;;;;;;12.60;2.00;;;18.10;70.10;;;;;;5052501;28;20094;-74
2023/10/04 10:09:22;;;;;;;14.55;2.03;;;18.10;70.10;;;;;;5059458;28;20048;-74
2023/10/04 10:11:52;;;;;;;12.35;1.85;;;18.30;70.10;;;;;;5053034;28;20086;-73
2023/10/04 10:14:20;;;;;;;8.48;1.75;;;18.50;68.90;;;;;;5061029;28;20211;-74
2023/10/04 10:16:46;;;;;;;11.75;1.80;;;18.50;67.80;;;;;;5052556;28;20565;-74
2023/10/04 10:19:12;;;;;;;11.10;1.60;;;18.20;69.00;;;;;;5059301;28;20028;-72
2023/10/04 10:22:08;;;;;;;14.57;1.83;;;17.90;70.20;;;;;;5054552;28;20140;-77
2023/10/04 10:24:40;;;;;;;10.65;1.23;;;17.80;70.50;;;;;;5055635;28;20867;-74
2023/10/04 10:27:09;;;;;;;12.93;1.67;;;17.60;70.00;;;;;;5047914;28;20037;-74
2023/10/04 10:29:37;;;;;;;10.30;1.80;;;17.60;71.00;;;;;;5057520;28;20065;-74
2023/10/04 10:32:06;;;;;;;8.43;1.45;;;17.60;70.60;;;;;;5048965;28;20045;-73
2023/10/04 10:34:31;;;;;;;;;;;17.70;70.20;;;;;;5057538;28;20032;-74
2023/10/04 10:37:19;;;;;;;8.95;1.23;;;17.80;68.80;;;;;;5048351;28;20292;-73
2023/10/04 10:39:46;;;;;;;9.82;1.25;;;17.90;68.60;;;;;;5060478;28;20393;-75
2023/10/04 10:42:14;;;;;;;9.45;1.30;;;18.10;67.10;;;;;;5053414;28;20056;-73
2023/10/04 10:44:40;;;;;;;9.85;1.45;;;18.10;67.90;;;;;;5055132;28;20032;-74
2023/10/04 10:47:19;;;;;;;9.93;1.23;;;18.30;67.10;;;;;;5051436;28;20064;-73
2023/10/04 10:49:58;;;;;;;6.80;1.38;;;18.40;68.60;;;;;;5051046;28;20708;-74
2023/10/04 10:52:34;;;;;;;8.98;1.20;;;18.40;69.20;;;;;;5045521;28;20569;-73
2023/10/04 10:55:05;;;;;;;11.10;1.10;;;18.60;68.00;;;;;;5056830;28;20025;-74
2023/10/04 10:57:32;;;;;;;7.35;0.95;;;18.60;65.40;;;;;;5046907;28;20051;-72
2023/10/04 11:00:11;;;;;;;5.05;1.38;;;18.80;66.30;;;;;;5050415;28;20032;-73
2023/10/04 11:02:37;;;;;;;5.70;1.08;;;18.90;65.40;;;;;;5053600;28;20102;-75
2023/10/04 11:05:05;;;;;;;11.18;1.77;;;19.00;63.40;;;;;;5049542;28;20471;-74
2023/10/04 11:07:32;;;;;;;7.88;1.35;;;19.10;63.80;;;;;;5061022;28;20051;-75
2023/10/04 11:09:58;;;;;;;4.72;1.08;;;19.10;60.30;;;;;;5046518;28;20040;-75
2023/10/04 11:12:25;;;;;;;6.18;1.10;;;19.10;57.90;;;;;;5060859;28;20016;-76
2023/10/04 11:14:52;;;;;;;5.55;1.60;;;19.20;58.00;;;;;;5050389;28;21594;-75
2023/10/04 11:17:20;;;;;;;8.15;1.25;;;19.20;58.20;;;;;;5055811;28;20086;-75
2023/10/04 11:19:46;;;;;;;6.43;0.95;;;19.20;58.70;;;;;;5048048;28;20039;-75
2023/10/04 11:22:15;;;;;;;5.60;0.93;;;19.30;58.10;;;;;;5061496;28;20036;-71
2023/10/04 11:24:41;;;;;;;7.22;1.23;;;19.20;57.50;;;;;;5047482;28;20577;-74
2023/10/04 11:27:08;;;;;;;10.07;2.10;;;19.00;58.30;;;;;;5062044;28;20155;-74
2023/10/04 11:29:35;;;;;;;5.40;1.23;;;18.80;58.30;;;;;;5043527;28;20119;-74
2023/10/04 11:32:01;;;;;;;6.43;1.30;;;18.70;60.50;;;;;;5052933;28;20036;-74
2023/10/04 11:34:35;;;;;;;10.43;1.60;;;18.70;62.60;;;;;;5030149;28;20050;-76
2023/10/04 11:37:01;;;;;;;5.57;1.08;;;18.80;62.10;;;;;;5049894;28;20067;-77
2023/10/04 11:39:35;;;;;;;12.60;1.35;;;18.80;61.10;;;;;;5047227;28;20040;-76
2023/10/04 11:42:03;;;;;;;6.65;1.42;;;18.80;59.80;;;;;;5058115;28;20724;-74
2023/10/04 11:44:32;;;;;;;8.77;1.10;;;18.80;60.20;;;;;;5046882;28;20335;-75
2023/10/04 11:47:01;;;;;;;5.85;1.10;;;19.20;59.70;;;;;;5055456;28;20033;-75
2023/10/04 11:49:28;;;;;;;8.70;1.30;;;19.60;59.90;;;;;;5047200;28;20872;-75
2023/10/04 11:51:58;;;;;;;7.55;1.20;;;20.10;59.00;;;;;;5059158;28;20035;-74
2023/10/04 11:54:26;;;;;;;7.30;1.00;;;20.30;57.10;;;;;;5057729;28;20097;-74
2023/10/04 11:56:52;;;;;;;6.35;1.40;;;20.10;56.50;;;;;;5053583;28;20036;-75
2023/10/04 11:59:34;;;;;;;6.93;0.98;;;20.10;57.00;;;;;;5056704;28;20040;-75
2023/10/04 12:02:00;;;;;;;10.48;1.20;;;20.40;56.10;;;;;;5057897;28;20086;-74
2023/10/04 12:04:28;;;;;;;4.93;0.80;;;20.40;55.80;;;;;;5055095;28;20026;-75
2023/10/04 12:07:04;;;;;;;6.80;1.00;;;20.30;57.00;;;;;;5047992;28;20658;-73
2023/10/04 12:09:33;;;;;;;9.13;1.75;;;20.40;58.60;;;;;;5060915;28;20046;-74
2023/10/04 12:12:02;;;;;;;4.93;0.85;;;20.70;55.30;;;;;;5042689;28;20032;-75
2023/10/04 12:14:31;;;;;;;5.43;1.07;;;20.50;55.60;;;;;;5065752;28;20043;-74
2023/10/04 12:17:02;;;;;;;9.15;1.52;;;20.60;55.00;;;;;;5044740;28;20125;-74
2023/10/04 12:19:30;;;;;;;4.70;0.98;;;20.80;55.60;;;;;;5059199;28;20496;-72
2023/10/04 12:21:56;;;;;;;7.60;1.15;;;20.90;56.10;;;;;;5052388;28;21848;-73
2023/10/04 12:24:22;;;;;;;6.97;1.42;;;21.00;57.20;;;;;;5057851;28;20142;-72
2023/10/04 12:26:48;;;;;;;5.68;1.10;;;21.10;59.00;;;;;;5053860;28;20040;-73
2023/10/04 12:29:14;;;;;;;7.72;1.25;;;20.80;59.20;;;;;;5062023;28;20117;-74
2023/10/04 12:31:39;;;;;;;6.50;0.82;;;20.50;59.90;;;;;;5042334;28;20080;-73
2023/10/04 12:34:05;;;;;;;4.75;1.58;;;20.40;60.50;;;;;;5059126;28;20039;-73
2023/10/04 12:36:31;;;;;;;6.78;1.58;;;20.50;60.00;;;;;;5043962;28;20041;-74
2023/10/04 12:38:57;;;;;;;7.65;0.93;;;20.50;59.30;;;;;;5050777;28;20060;-74
2023/10/04 12:41:22;;;;;;;3.95;0.80;;;20.40;58.60;;;;;;5048827;28;20433;-74
2023/10/04 12:43:48;;;;;;;8.27;1.20;;;20.20;59.50;;;;;;5055537;28;20500;-74